Time;durP1;ratioP1;P1;durP2;ratioP2;P2;SDS_P1;SDS_P2;PMS_P1;PMS_P2;Temp;Humidity;BMP_temperature;BMP_pressure;BME280_temperature;BME280_humidity;BME280_pressure;Samples;Min_cycle;Max_cycle;Signal;HPM_P1;HPM_P2
2021/01/08 00:02:19;;;;;;;;;;;19.40;94.60;;;;;;5053283;28;19921;-83
2021/01/08 00:04:46;;;;;;;;;;;19.60;94.20;;;;;;5014556;28;19933;-83
2021/01/08 00:07:13;;;;;;;;;;;19.70;92.80;;;;;;5027586;28;19940;-83
2021/01/08 00:09:39;;;;;;;;;;;19.90;93.90;;;;;;5015206;28;19952;-85
2021/01/08 00:12:07;;;;;;;;;;;20.00;92.90;;;;;;5032781;28;20019;-86
2021/01/08 00:14:33;;;;;;;;;;;20.10;92.60;;;;;;5031948;28;20477;-83
2021/01/08 00:17:00;;;;;;;;;;;20.00;93.40;;;;;;5015739;28;20291;-83
2021/01/08 00:19:27;;;;;;;;;;;20.10;92.40;;;;;;5059729;28;19928;-84
2021/01/08 00:21:54;;;;;;;;;;;19.90;93.60;;;;;;5025792;28;19913;-83
2021/01/08 00:24:20;;;;;;;;;;;19.80;93.00;;;;;;5043225;28;19912;-87
2021/01/08 00:26:50;;;;;;;;;;;19.70;94.00;;;;;;5016881;28;19933;-86
2021/01/08 00:29:17;;;;;;;;;;;19.70;95.80;;;;;;5012669;28;20009;-85
2021/01/08 00:31:44;;;;;;;;;;;19.60;94.60;;;;;;5013061;28;19925;-84
2021/01/08 00:34:12;;;;;;;;;;;19.50;95.00;;;;;;5012544;28;19917;-86
2021/01/08 00:36:46;;;;;;;;;;;19.50;94.20;;;;;;5012973;28;20264;-85
2021/01/08 00:39:13;;;;;;;;;;;19.50;93.70;;;;;;5012524;28;19916;-84
2021/01/08 00:41:47;;;;;;;;;;;19.60;93.70;;;;;;5021744;28;19956;-88
2021/01/08 00:44:14;;;;;;;;;;;19.80;93.40;;;;;;5014574;28;19936;-87
2021/01/08 00:46:43;;;;;;;;;;;19.90;92.90;;;;;;5031917;28;20008;-87
2021/01/08 00:49:10;;;;;;;;;;;20.10;92.60;;;;;;5032927;28;19909;-85
2021/01/08 00:51:37;;;;;;;;;;;20.20;92.10;;;;;;5032626;28;19963;-85
2021/01/08 00:54:07;;;;;;;;;;;20.40;92.30;;;;;;5031352;28;20410;-85
2021/01/08 00:56:33;;;;;;;;;;;20.70;91.80;;;;;;5024215;28;19917;-85
2021/01/08 00:59:00;;;;;;;;;;;20.80;90.80;;;;;;5022364;28;19914;-87
2021/01/08 01:01:27;;;;;;;;;;;20.90;90.40;;;;;;4995507;28;19914;-82
2021/01/08 01:03:54;;;;;;;;;;;21.00;91.00;;;;;;5013029;28;19911;-82
2021/01/08 01:06:28;;;;;;;;;;;21.10;90.30;;;;;;5012618;28;19916;-80
2021/01/08 01:08:55;;;;;;;;;;;21.20;87.70;;;;;;5012427;28;20384;-86
2021/01/08 01:11:23;;;;;;;;;;;21.40;87.50;;;;;;5023090;28;19921;-85
2021/01/08 01:13:51;;;;;;;;;;;21.50;85.40;;;;;;5032239;28;19928;-81
2021/01/08 01:16:18;;;;;;;;;;;21.60;83.60;;;;;;5024526;28;19967;-83
2021/01/08 01:18:46;;;;;;;;;;;21.50;85.20;;;;;;5029626;28;19910;-82
2021/01/08 01:21:13;;;;;;;;;;;21.50;85.70;;;;;;5032316;28;20657;-84
2021/01/08 01:23:40;;;;;;;;;;;21.60;87.10;;;;;;5013987;28;20004;-81
2021/01/08 01:26:07;;;;;;;;;;;21.60;86.20;;;;;;5032149;28;19971;-82
2021/01/08 01:28:34;;;;;;;;;;;21.70;84.90;;;;;;5031559;28;19909;-83
2021/01/08 01:31:04;;;;;;;;;;;21.60;84.20;;;;;;5031917;28;19913;-81
2021/01/08 01:33:31;;;;;;;;;;;21.70;84.40;;;;;;5030707;28;19918;-83
2021/01/08 01:35:58;;;;;;;;;;;21.70;83.50;;;;;;5017426;28;19913;-80
2021/01/08 01:38:25;;;;;;;;;;;21.90;82.70;;;;;;5016223;28;19910;-82
2021/01/08 01:40:52;;;;;;;;;;;22.00;81.60;;;;;;5014104;28;19979;-80
2021/01/08 01:43:18;;;;;;;;;;;21.90;82.70;;;;;;5015907;28;19910;-83
2021/01/08 01:45:45;;;;;;;;;;;21.80;81.70;;;;;;5014885;28;19917;-81
2021/01/08 01:48:12;;;;;;;;;;;21.80;82.30;;;;;;5015239;28;19918;-82
2021/01/08 01:50:39;;;;;;;;;;;21.80;80.70;;;;;;5014232;28;20040;-83
2021/01/08 01:53:06;;;;;;;;;;;21.60;78.50;;;;;;5015579;28;20382;-82
2021/01/08 01:55:33;;;;;;;;;;;21.60;80.40;;;;;;5015187;28;19916;-81
2021/01/08 01:58:00;;;;;;;;;;;21.60;82.40;;;;;;5019473;28;20055;-82
2021/01/08 02:00:27;;;;;;;;;;;21.50;82.60;;;;;;5034864;28;19920;-80
2021/01/08 02:02:54;;;;;;;;;;;21.50;81.40;;;;;;5035080;28;20097;-81
2021/01/08 02:05:21;;;;;;;;;;;21.50;82.50;;;;;;5035309;28;19910;-81
2021/01/08 02:08:01;;;;;;;;;;;21.60;82.30;;;;;;5034857;28;19916;-82
2021/01/08 02:10:31;;;;;;;;;;;21.60;81.30;;;;;;5038258;28;19992;-82
2021/01/08 02:13:00;;;;;;;;;;;21.60;81.70;;;;;;5051301;28;19959;-81
2021/01/08 02:15:28;;;;;;;;;;;21.50;83.00;;;;;;5014634;28;20072;-81
2021/01/08 02:17:55;;;;;;;;;;;21.60;82.90;;;;;;5002947;28;20265;-82
2021/01/08 02:20:22;;;;;;;;;;;21.60;83.30;;;;;;5016725;28;20232;-82
2021/01/08 02:25:54;;;;;;;;;;;21.90;82.60;;;;;;5017293;28;19916;-81
2021/01/08 02:28:22;;;;;;;;;;;22.10;81.40;;;;;;5034205;28;20475;-81
2021/01/08 02:30:50;;;;;;;;;;;22.30;81.30;;;;;;5029418;28;19913;-81
2021/01/08 02:33:17;;;;;;;;;;;22.30;80.50;;;;;;5016394;28;19918;-81
2021/01/08 02:35:46;;;;;;;;;;;22.30;80.60;;;;;;5014363;28;19960;-81
2021/01/08 02:38:14;;;;;;;;;;;22.10;78.50;;;;;;5020166;28;19909;-81
2021/01/08 02:40:41;;;;;;;;;;;22.00;80.40;;;;;;5033838;28;19939;-81
2021/01/08 02:43:08;;;;;;;;;;;22.00;80.20;;;;;;5034223;28;19916;-81
2021/01/08 02:45:35;;;;;;;;;;;22.00;80.30;;;;;;5028742;28;19972;-81
2021/01/08 02:48:02;;;;;;;;;;;22.00;78.40;;;;;;5013494;28;19922;-82
2021/01/08 02:50:28;;;;;;;;;;;22.10;77.70;;;;;;5028292;28;20313;-81
2021/01/08 02:52:59;;;;;;;;;;;22.10;78.20;;;;;;5033481;28;20009;-81
2021/01/08 02:55:30;;;;;;;;;;;22.30;79.00;;;;;;5031498;28;19913;-81
2021/01/08 02:57:58;;;;;;;;;;;22.20;80.00;;;;;;5038899;28;19920;-81
2021/01/08 03:00:26;;;;;;;;;;;22.10;81.40;;;;;;5033780;28;20354;-82
2021/01/08 03:02:53;;;;;;;;;;;22.20;79.90;;;;;;5038344;28;19919;-82
2021/01/08 03:05:20;;;;;;;;;;;22.30;79.50;;;;;;5029178;28;20391;-82
2021/01/08 03:07:47;;;;;;;;;;;22.40;78.90;;;;;;5033472;28;19993;-82
2021/01/08 03:10:14;;;;;;;;;;;22.40;77.40;;;;;;5033713;28;19909;-82
2021/01/08 03:12:41;;;;;;;;;;;22.30;79.20;;;;;;5033685;28;19996;-86
2021/01/08 03:15:11;;;;;;;;;;;22.40;79.40;;;;;;5033883;28;19910;-82
2021/01/08 03:17:38;;;;;;;;;;;22.30;80.30;;;;;;5032906;28;19913;-82
2021/01/08 03:20:04;;;;;;;;;;;22.30;80.50;;;;;;5033499;28;20030;-81
2021/01/08 03:22:31;;;;;;;;;;;22.20;80.30;;;;;;5033655;28;19913;-81
2021/01/08 03:24:59;;;;;;;;;;;22.00;81.50;;;;;;5033572;28;19955;-80
2021/01/08 03:27:26;;;;;;;;;;;21.90;82.50;;;;;;5033053;28;20097;-82
2021/01/08 03:29:52;;;;;;;;;;;21.80;82.60;;;;;;5033219;28;19909;-83
2021/01/08 03:32:19;;;;;;;;;;;21.90;81.80;;;;;;5034742;28;19917;-82
2021/01/08 03:34:45;;;;;;;;;;;22.10;82.80;;;;;;5033748;28;19963;-82
2021/01/08 03:37:12;;;;;;;;;;;22.20;82.30;;;;;;5033411;28;19909;-82
2021/01/08 03:39:39;;;;;;;;;;;22.20;84.90;;;;;;5032932;28;19982;-80
2021/01/08 03:42:05;;;;;;;;;;;22.20;85.80;;;;;;5033212;28;19915;-81
2021/01/08 03:44:32;;;;;;;;;;;22.00;85.70;;;;;;5032878;28;19916;-81
2021/01/08 03:46:59;;;;;;;;;;;21.90;86.10;;;;;;5032145;28;19917;-81
2021/01/08 03:49:25;;;;;;;;;;;21.90;86.70;;;;;;5032917;28;19920;-83
2021/01/08 03:51:52;;;;;;;;;;;21.80;86.00;;;;;;5034161;28;19921;-81
2021/01/08 03:54:19;;;;;;;;;;;21.80;86.70;;;;;;5035218;28;20297;-82
2021/01/08 03:56:46;;;;;;;;;;;21.90;86.90;;;;;;5052469;28;19955;-82
2021/01/08 03:59:13;;;;;;;;;;;21.80;87.50;;;;;;5033975;28;19909;-81
2021/01/08 04:01:40;;;;;;;;;;;21.80;87.50;;;;;;5043072;28;20014;-82
2021/01/08 04:04:06;;;;;;;;;;;21.70;86.80;;;;;;5042765;28;19913;-82
2021/01/08 04:06:33;;;;;;;;;;;21.70;84.80;;;;;;5043164;28;19909;-80
2021/01/08 04:09:00;;;;;;;;;;;21.70;82.80;;;;;;5034171;28;20376;-81
2021/01/08 04:11:26;;;;;;;;;;;21.60;83.10;;;;;;5032381;28;19917;-81
2021/01/08 04:13:56;;;;;;;;;;;21.60;83.60;;;;;;5032051;28;19916;-81
2021/01/08 04:16:23;;;;;;;;;;;21.70;83.30;;;;;;5032751;28;19909;-81
2021/01/08 04:18:49;;;;;;;;;;;21.70;83.10;;;;;;5042515;28;20447;-80
2021/01/08 04:21:16;;;;;;;;;;;21.70;82.80;;;;;;5034257;28;19912;-81
2021/01/08 04:23:43;;;;;;;;;;;21.70;83.20;;;;;;5028086;28;19965;-80
2021/01/08 04:26:10;;;;;;;;;;;21.70;84.10;;;;;;5038397;28;20424;-80
2021/01/08 04:28:36;;;;;;;;;;;21.60;84.30;;;;;;5052540;28;20382;-80
2021/01/08 04:31:03;;;;;;;;;;;21.70;84.70;;;;;;5014569;28;20025;-80
2021/01/08 04:33:30;;;;;;;;;;;21.70;83.80;;;;;;5014330;28;19913;-79
2021/01/08 04:35:58;;;;;;;;;;;21.70;83.30;;;;;;5032177;28;19913;-82
2021/01/08 04:38:24;;;;;;;;;;;21.70;83.20;;;;;;5032488;28;19963;-81
2021/01/08 04:40:51;;;;;;;;;;;21.80;84.60;;;;;;5031973;28;19948;-83
2021/01/08 04:43:18;;;;;;;;;;;21.90;84.40;;;;;;5014389;28;19909;-79
2021/01/08 04:45:44;;;;;;;;;;;21.80;84.90;;;;;;5034356;28;21233;-78
2021/01/08 04:48:13;;;;;;;;;;;21.70;85.30;;;;;;5037587;28;19917;-79
2021/01/08 04:50:41;;;;;;;;;;;21.70;86.40;;;;;;5032198;28;19955;-81
2021/01/08 04:53:09;;;;;;;;;;;21.70;85.70;;;;;;5032005;28;19924;-79
2021/01/08 04:55:37;;;;;;;;;;;21.60;86.40;;;;;;5031840;28;19917;-79
2021/01/08 04:58:06;;;;;;;;;;;21.60;85.90;;;;;;5032410;28;19932;-80
2021/01/08 05:00:34;;;;;;;;;;;21.60;84.80;;;;;;5032296;28;19909;-80
2021/01/08 05:03:01;;;;;;;;;;;21.70;82.90;;;;;;5031747;28;19913;-80
2021/01/08 05:05:28;;;;;;;;;;;21.80;83.20;;;;;;5041045;28;19932;-80
2021/01/08 05:07:54;;;;;;;;;;;21.80;82.10;;;;;;5040839;28;19909;-80
2021/01/08 05:10:21;;;;;;;;;;;21.90;83.30;;;;;;5041783;28;19913;-80
2021/01/08 05:12:52;;;;;;;;;;;21.70;83.90;;;;;;5046321;28;19920;-80
2021/01/08 05:15:24;;;;;;;;;;;21.80;86.40;;;;;;5020589;28;19913;-80
2021/01/08 05:17:51;;;;;;;;;;;21.80;85.10;;;;;;5045346;28;19905;-80
2021/01/08 05:20:21;;;;;;;;;;;21.70;83.20;;;;;;5045786;28;20333;-79
2021/01/08 05:22:50;;;;;;;;;;;21.60;84.10;;;;;;5018345;28;20415;-81
2021/01/08 05:25:17;;;;;;;;;;;21.50;84.40;;;;;;5017654;28;20049;-79
2021/01/08 05:27:49;;;;;;;;;;;21.50;86.30;;;;;;5035165;28;19971;-79
2021/01/08 05:30:16;;;;;;;;;;;21.40;87.40;;;;;;5017770;28;19909;-79
2021/01/08 05:32:43;;;;;;;;;;;21.50;88.80;;;;;;5035251;28;19968;-79
2021/01/08 05:35:14;;;;;;;;;;;21.50;87.80;;;;;;5035607;28;20375;-79
2021/01/08 05:37:46;;;;;;;;;;;21.50;86.50;;;;;;5035311;28;20356;-79
2021/01/08 05:40:14;;;;;;;;;;;21.60;87.40;;;;;;5035433;28;19913;-79
2021/01/08 05:43:13;;;;;;;;;;;21.60;85.60;;;;;;5030171;28;19915;-79
2021/01/08 05:45:40;;;;;;;;;;;21.60;85.60;;;;;;4990477;28;20339;-79
2021/01/08 05:48:07;;;;;;;;;;;21.50;85.90;;;;;;5035037;28;19968;-79
2021/01/08 05:50:34;;;;;;;;;;;21.60;86.80;;;;;;5036043;28;19952;-77
2021/01/08 05:53:08;;;;;;;;;;;21.60;86.70;;;;;;5033394;28;20295;-77
2021/01/08 05:55:36;;;;;;;;;;;21.60;85.90;;;;;;5035057;28;20012;-80
2021/01/08 05:58:22;;;;;;;;;;;21.70;86.30;;;;;;5035030;28;19909;-80
2021/01/08 06:01:00;;;;;;;;;;;21.70;85.70;;;;;;5053127;28;19974;-78
2021/01/08 06:03:27;;;;;;;;;;;21.60;85.70;;;;;;5048467;28;19917;-78
2021/01/08 06:05:54;;;;;;;;;;;21.50;85.90;;;;;;5049478;28;19963;-81
2021/01/08 06:08:24;;;;;;;;;;;21.50;86.60;;;;;;5052302;28;20375;-78
2021/01/08 06:10:52;;;;;;;;;;;21.50;85.30;;;;;;5052824;28;19938;-79
2021/01/08 06:13:23;;;;;;;;;;;21.50;85.60;;;;;;5022856;28;19913;-80
2021/01/08 06:15:52;;;;;;;;;;;21.50;85.50;;;;;;5014601;28;19917;-78
2021/01/08 06:18:19;;;;;;;;;;;21.50;86.40;;;;;;5031697;28;19993;-78
2021/01/08 06:20:48;;;;;;;;;;;21.50;86.00;;;;;;5033031;28;19928;-78
2021/01/08 06:23:34;;;;;;;;;;;21.50;87.20;;;;;;5031245;28;20037;-79
2021/01/08 06:26:02;;;;;;;;;;;21.50;87.10;;;;;;5022374;28;20287;-80
2021/01/08 06:28:37;;;;;;;;;;;21.30;87.50;;;;;;5034482;28;20353;-79
2021/01/08 06:31:05;;;;;;;;;;;21.30;88.40;;;;;;5018727;28;20355;-77
2021/01/08 06:33:36;;;;;;;;;;;21.10;88.10;;;;;;5030463;28;19923;-80
2021/01/08 06:36:16;;;;;;;;;;;21.10;89.00;;;;;;5030012;28;20380;-80
2021/01/08 06:38:47;;;;;;;;;;;21.10;89.40;;;;;;5032397;28;19990;-80
2021/01/08 06:41:16;;;;;;;;;;;21.10;88.70;;;;;;5032616;28;19913;-84
2021/01/08 06:43:58;;;;;;;;;;;21.20;89.20;;;;;;5030776;28;19909;-80
2021/01/08 06:46:28;;;;;;;;;;;21.20;88.90;;;;;;5030050;28;20016;-81
2021/01/08 06:49:01;;;;;;;;;;;21.00;89.30;;;;;;5030375;28;19921;-80
2021/01/08 06:51:29;;;;;;;;;;;20.90;89.40;;;;;;5029129;28;19917;-80
2021/01/08 06:53:58;;;;;;;;;;;21.00;89.60;;;;;;5030123;28;19917;-79
2021/01/08 06:56:29;;;;;;;;;;;21.00;90.30;;;;;;5021066;28;19916;-79
2021/01/08 06:58:56;;;;;;;;;;;21.10;90.60;;;;;;5031623;28;19913;-79
2021/01/08 07:01:28;;;;;;;;;;;21.00;90.00;;;;;;5030571;28;19941;-78
2021/01/08 07:03:54;;;;;;;;;;;21.00;90.00;;;;;;5030310;28;20020;-80
2021/01/08 07:06:23;;;;;;;;;;;20.90;90.00;;;;;;5030034;28;19944;-80
2021/01/08 07:08:49;;;;;;;;;;;20.90;90.00;;;;;;5025772;28;20024;-78
2021/01/08 07:11:26;;;;;;;;;;;20.90;90.20;;;;;;5029631;28;20339;-79
2021/01/08 07:14:09;;;;;;;;;;;21.00;90.10;;;;;;5029230;28;19965;-78
2021/01/08 07:16:40;;;;;;;;;;;21.00;89.80;;;;;;5031817;28;19921;-79
2021/01/08 07:19:11;;;;;;;;;;;20.90;89.10;;;;;;5031722;28;19920;-78
2021/01/08 07:21:48;;;;;;;;;;;20.70;90.10;;;;;;5031100;28;19913;-80
2021/01/08 07:24:17;;;;;;;;;;;20.70;88.60;;;;;;5013900;28;19923;-78
2021/01/08 07:26:43;;;;;;;;;;;20.70;89.00;;;;;;5025670;28;20376;-81
2021/01/08 07:29:11;;;;;;;;;;;20.80;88.90;;;;;;5028050;28;19920;-79
2021/01/08 07:31:38;;;;;;;;;;;20.80;87.80;;;;;;5041085;28;19976;-78
2021/01/08 07:34:06;;;;;;;;;;;20.80;88.10;;;;;;5031977;28;20443;-80
2021/01/08 07:36:33;;;;;;;;;;;20.80;87.40;;;;;;5030971;28;20012;-79
2021/01/08 07:39:01;;;;;;;;;;;20.70;87.00;;;;;;5031616;28;20391;-80
2021/01/08 07:41:31;;;;;;;;;;;20.70;86.80;;;;;;5013817;28;19985;-82
2021/01/08 07:43:58;;;;;;;;;;;20.70;87.20;;;;;;5013552;28;19958;-78
2021/01/08 07:46:29;;;;;;;;;;;20.70;88.10;;;;;;5000638;28;20357;-77
2021/01/08 07:48:56;;;;;;;;;;;20.70;88.00;;;;;;5011327;28;19997;-79
2021/01/08 07:51:23;;;;;;;;;;;20.70;88.20;;;;;;5011025;28;19921;-80
2021/01/08 07:53:53;;;;;;;;;;;20.70;87.70;;;;;;5021275;28;19966;-80
2021/01/08 07:56:21;;;;;;;;;;;20.70;86.20;;;;;;5013336;28;19971;-79
2021/01/08 07:58:58;;;;;;;;;;;20.70;87.00;;;;;;5030240;28;19990;-79
2021/01/08 08:01:25;;;;;;;;;;;20.70;87.40;;;;;;5034758;28;19897;-78
2021/01/08 08:04:01;;;;;;;;;;;20.70;86.50;;;;;;5046346;28;19969;-80
2021/01/08 08:06:29;;;;;;;;;;;20.60;85.60;;;;;;5036117;28;19913;-80
2021/01/08 08:08:59;;;;;;;;;;;20.60;86.20;;;;;;5043638;28;19909;-81
2021/01/08 08:11:33;;;;;;;;;;;20.60;86.50;;;;;;5031883;28;19975;-82
2021/01/08 08:14:00;;;;;;;;;;;20.60;87.90;;;;;;5012927;28;19984;-80
2021/01/08 08:16:36;;;;;;;;;;;20.60;87.50;;;;;;5028424;28;20039;-80
2021/01/08 08:19:04;;;;;;;;;;;20.60;86.80;;;;;;5034521;28;19909;-80
2021/01/08 08:21:30;;;;;;;;;;;20.60;86.50;;;;;;5043836;28;19909;-80
2021/01/08 08:24:04;;;;;;;;;;;20.50;86.70;;;;;;5031647;28;19910;-81
2021/01/08 08:26:32;;;;;;;;;;;20.50;87.30;;;;;;5030631;28;19924;-80
2021/01/08 08:28:58;;;;;;;;;;;20.50;87.40;;;;;;5011445;28;19909;-82
2021/01/08 08:31:27;;;;;;;;;;;20.50;87.60;;;;;;5030880;28;19974;-81
2021/01/08 08:33:54;;;;;;;;;;;20.50;88.90;;;;;;5030465;28;19996;-81
2021/01/08 08:36:21;;;;;;;;;;;20.50;87.80;;;;;;5031330;28;19913;-79
2021/01/08 08:39:06;;;;;;;;;;;20.50;88.00;;;;;;5032537;28;19920;-81
2021/01/08 08:41:34;;;;;;;;;;;20.50;87.30;;;;;;5032217;28;20043;-80
2021/01/08 08:44:12;;;;;;;;;;;20.50;87.60;;;;;;5032890;28;20424;-80
2021/01/08 08:46:42;;;;;;;;;;;20.50;88.00;;;;;;5054678;28;20375;-81
2021/01/08 08:49:10;;;;;;;;;;;20.50;87.90;;;;;;5056267;28;19920;-81
2021/01/08 08:51:40;;;;;;;;;;;20.40;87.70;;;;;;5056407;28;19927;-80
2021/01/08 08:54:07;;;;;;;;;;;20.40;87.70;;;;;;5050945;28;20377;-81
2021/01/08 08:56:34;;;;;;;;;;;20.50;88.00;;;;;;5042354;28;19964;-80
2021/01/08 08:59:02;;;;;;;;;;;20.40;87.40;;;;;;5036282;28;19913;-79
2021/01/08 09:01:39;;;;;;;;;;;20.40;87.20;;;;;;5029967;28;19921;-80
2021/01/08 09:04:06;;;;;;;;;;;20.30;87.50;;;;;;5037141;28;19909;-84
2021/01/08 09:06:40;;;;;;;;;;;20.30;87.70;;;;;;5036274;28;19913;-82
2021/01/08 09:09:11;;;;;;;;;;;20.30;88.30;;;;;;5023236;28;19917;-81
2021/01/08 09:11:47;;;;;;;;;;;20.30;88.50;;;;;;5016517;28;20360;-81
2021/01/08 09:14:17;;;;;;;;;;;20.30;89.20;;;;;;5031584;28;19920;-83
2021/01/08 09:16:53;;;;;;;;;;;20.30;89.30;;;;;;5017477;28;20313;-84
2021/01/08 09:19:25;;;;;;;;;;;20.30;89.10;;;;;;5036803;28;19909;-80
2021/01/08 09:21:52;;;;;;;;;;;20.30;89.90;;;;;;5036171;28;20398;-83
2021/01/08 09:24:28;;;;;;;;;;;20.30;89.20;;;;;;5036011;28;19909;-82
2021/01/08 09:26:59;;;;;;;;;;;20.30;89.40;;;;;;5036081;28;20283;-83
2021/01/08 09:29:28;;;;;;;;;;;20.20;89.20;;;;;;5035152;28;19913;-81
2021/01/08 09:31:56;;;;;;;;;;;20.30;89.70;;;;;;5035371;28;20000;-81
2021/01/08 09:34:23;;;;;;;;;;;20.20;89.90;;;;;;5035132;28;19909;-79
2021/01/08 09:36:51;;;;;;;;;;;20.20;90.10;;;;;;5015634;28;19909;-81
2021/01/08 09:39:18;;;;;;;;;;;20.20;90.10;;;;;;5015996;28;19917;-80
2021/01/08 09:41:53;;;;;;;;;;;20.20;89.80;;;;;;5015790;28;19917;-82
2021/01/08 09:44:20;;;;;;;;;;;20.20;90.10;;;;;;5015763;28;20375;-82
2021/01/08 09:47:06;;;;;;;;;;;20.20;90.30;;;;;;5015111;28;20045;-82
2021/01/08 09:49:45;;;;;;;;;;;20.10;90.30;;;;;;5046391;28;19951;-84
2021/01/08 09:52:12;;;;;;;;;;;20.10;90.20;;;;;;5014789;28;20282;-81
2021/01/08 09:54:42;;;;;;;;;;;20.10;90.30;;;;;;5025840;28;20020;-82
2021/01/08 09:57:09;;;;;;;;;;;20.10;90.40;;;;;;5015236;28;19932;-82
2021/01/08 09:59:36;;;;;;;;;;;20.10;90.60;;;;;;5015190;28;19914;-82
2021/01/08 10:02:09;;;;;;;;;;;20.20;90.20;;;;;;5016135;28;19989;-83
2021/01/08 10:04:37;;;;;;;;;;;20.20;90.40;;;;;;5035396;28;20020;-83
2021/01/08 10:07:07;;;;;;;;;;;20.10;90.40;;;;;;5034906;28;19929;-82
2021/01/08 10:09:47;;;;;;;;;;;20.10;90.70;;;;;;5034796;28;19961;-82
2021/01/08 10:12:14;;;;;;;;;;;20.10;90.40;;;;;;5025526;28;19921;-82
2021/01/08 10:14:41;;;;;;;;;;;20.00;90.10;;;;;;5034781;28;19920;-82
2021/01/08 10:17:09;;;;;;;;;;;20.00;90.20;;;;;;5034461;28;20364;-81
2021/01/08 10:19:35;;;;;;;;;;;20.00;90.60;;;;;;5035906;28;19912;-82
2021/01/08 10:22:03;;;;;;;;;;;20.00;90.00;;;;;;5035004;28;19914;-84
2021/01/08 10:24:30;;;;;;;;;;;20.00;90.20;;;;;;5019888;28;20292;-84
2021/01/08 10:26:57;;;;;;;;;;;20.00;90.40;;;;;;5013750;28;20320;-84
2021/01/08 10:29:30;;;;;;;;;;;20.00;90.40;;;;;;5027720;28;20380;-83
2021/01/08 10:31:57;;;;;;;;;;;20.00;90.00;;;;;;5014878;28;20063;-83
2021/01/08 10:34:26;;;;;;;;;;;20.00;90.40;;;;;;5018257;28;19920;-83
2021/01/08 10:36:53;;;;;;;;;;;20.00;90.40;;;;;;5033664;28;19917;-84
2021/01/08 10:39:19;;;;;;;;;;;20.00;90.10;;;;;;5033777;28;19909;-82
2021/01/08 10:41:48;;;;;;;;;;;20.00;89.30;;;;;;5033761;28;19948;-79
2021/01/08 10:44:15;;;;;;;;;;;20.00;89.60;;;;;;5034427;28;19910;-81
2021/01/08 10:46:42;;;;;;;;;;;20.00;90.00;;;;;;5033975;28;20376;-86
2021/01/08 10:49:08;;;;;;;;;;;20.00;90.00;;;;;;5051213;28;19952;-80
2021/01/08 10:51:35;;;;;;;;;;;20.00;90.20;;;;;;5037514;28;19917;-81
2021/01/08 10:54:02;;;;;;;;;;;20.00;90.10;;;;;;5018401;28;19920;-81
2021/01/08 10:56:31;;;;;;;;;;;20.00;89.90;;;;;;5032315;28;20346;-81
2021/01/08 10:58:58;;;;;;;;;;;19.90;89.90;;;;;;5033908;28;19909;-83
2021/01/08 11:01:24;;;;;;;;;;;19.90;90.00;;;;;;5034202;28;19955;-82
2021/01/08 11:03:51;;;;;;;;;;;19.90;90.10;;;;;;5033764;28;20364;-81
2021/01/08 11:06:18;;;;;;;;;;;20.00;90.20;;;;;;5033824;28;19909;-81
2021/01/08 11:08:45;;;;;;;;;;;20.00;90.10;;;;;;5032782;28;20376;-81
2021/01/08 11:11:15;;;;;;;;;;;20.00;89.80;;;;;;5033735;28;20079;-80
2021/01/08 11:13:42;;;;;;;;;;;20.00;89.90;;;;;;5033799;28;19913;-81
2021/01/08 11:16:08;;;;;;;;;;;20.00;90.00;;;;;;5034124;28;19909;-82
2021/01/08 11:18:35;;;;;;;;;;;20.00;90.20;;;;;;5032920;28;19928;-81
2021/01/08 11:21:02;;;;;;;;;;;20.00;90.30;;;;;;5033830;28;19920;-82
2021/01/08 11:23:28;;;;;;;;;;;20.00;90.50;;;;;;5033261;28;19913;-81
2021/01/08 11:25:55;;;;;;;;;;;20.00;90.60;;;;;;5029065;28;19912;-80
2021/01/08 11:28:21;;;;;;;;;;;20.00;90.50;;;;;;5050397;28;19908;-82
2021/01/08 11:30:49;;;;;;;;;;;20.00;90.70;;;;;;5014658;28;19955;-82
2021/01/08 11:33:16;;;;;;;;;;;20.00;91.00;;;;;;5044875;28;19970;-82
2021/01/08 11:35:42;;;;;;;;;;;20.00;90.80;;;;;;5038565;28;19913;-84
2021/01/08 11:38:09;;;;;;;;;;;19.90;91.00;;;;;;5033145;28;20372;-84
2021/01/08 11:40:35;;;;;;;;;;;19.90;90.60;;;;;;5033404;28;19916;-86
2021/01/08 11:43:03;;;;;;;;;;;19.90;90.50;;;;;;5033621;28;19920;-84
2021/01/08 11:45:29;;;;;;;;;;;19.90;90.60;;;;;;5032907;28;19933;-83
2021/01/08 11:47:56;;;;;;;;;;;19.80;90.80;;;;;;5041571;28;19927;-82
2021/01/08 11:50:22;;;;;;;;;;;19.70;90.70;;;;;;5039382;28;20015;-85
2021/01/08 11:52:49;;;;;;;;;;;19.70;90.80;;;;;;5033001;28;19917;-84
2021/01/08 11:55:16;;;;;;;;;;;19.70;90.70;;;;;;5044733;28;20422;-82
2021/01/08 11:57:43;;;;;;;;;;;19.60;90.80;;;;;;5034637;28;19917;-84
2021/01/08 12:00:10;;;;;;;;;;;19.60;90.90;;;;;;5015377;28;20279;-85
2021/01/08 12:02:37;;;;;;;;;;;19.60;91.30;;;;;;5033399;28;19913;-83
2021/01/08 12:05:04;;;;;;;;;;;19.60;91.00;;;;;;5032791;28;20360;-83
2021/01/08 12:07:32;;;;;;;;;;;19.50;91.00;;;;;;5033057;28;19920;-83
2021/01/08 12:09:59;;;;;;;;;;;19.50;91.00;;;;;;5032587;28;20071;-84
2021/01/08 12:12:25;;;;;;;;;;;19.40;91.00;;;;;;5033043;28;19921;-81
2021/01/08 12:14:52;;;;;;;;;;;19.40;90.90;;;;;;5032380;28;19959;-83
2021/01/08 12:17:19;;;;;;;;;;;19.50;91.30;;;;;;5033033;28;19909;-82
2021/01/08 12:19:46;;;;;;;;;;;19.40;90.90;;;;;;5032531;28;20050;-82
2021/01/08 12:22:12;;;;;;;;;;;19.40;91.10;;;;;;5033183;28;19975;-83
2021/01/08 12:24:39;;;;;;;;;;;19.40;91.00;;;;;;5038446;28;19919;-84
2021/01/08 12:27:06;;;;;;;;;;;19.40;91.10;;;;;;5029340;28;19910;-83
2021/01/08 12:29:34;;;;;;;;;;;19.40;91.40;;;;;;5028502;28;19913;-85
2021/01/08 12:32:04;;;;;;;;;;;19.40;91.50;;;;;;5031864;28;19987;-83
2021/01/08 12:34:31;;;;;;;;;;;19.30;91.30;;;;;;5033041;28;19952;-83
2021/01/08 12:36:58;;;;;;;;;;;19.30;91.30;;;;;;5033383;28;19909;-84
2021/01/08 12:39:25;;;;;;;;;;;19.30;91.50;;;;;;5033581;28;19955;-82
2021/01/08 12:41:51;;;;;;;;;;;19.30;91.70;;;;;;5032473;28;19992;-83
2021/01/08 12:44:18;;;;;;;;;;;19.20;91.60;;;;;;5031973;28;20376;-82
2021/01/08 12:46:44;;;;;;;;;;;19.20;91.80;;;;;;5032337;28;19917;-83
2021/01/08 12:49:11;;;;;;;;;;;19.20;91.90;;;;;;5032777;28;19972;-82
2021/01/08 12:51:38;;;;;;;;;;;19.20;92.20;;;;;;5032540;28;19928;-82
2021/01/08 12:54:05;;;;;;;;;;;19.20;92.30;;;;;;5032059;28;19913;-82
2021/01/08 12:56:32;;;;;;;;;;;19.20;92.40;;;;;;5033102;28;19963;-81
2021/01/08 12:58:59;;;;;;;;;;;19.20;92.30;;;;;;5033084;28;19955;-82
2021/01/08 13:01:26;;;;;;;;;;;19.20;92.40;;;;;;5032532;28;19948;-83
2021/01/08 13:03:52;;;;;;;;;;;19.10;92.40;;;;;;5032866;28;19913;-84
2021/01/08 13:06:26;;;;;;;;;;;19.10;92.50;;;;;;5032672;28;20284;-82
2021/01/08 13:08:53;;;;;;;;;;;19.20;92.60;;;;;;5032512;28;20280;-82
2021/01/08 13:11:20;;;;;;;;;;;19.10;92.50;;;;;;5032677;28;20016;-83
2021/01/08 13:13:47;;;;;;;;;;;19.10;92.70;;;;;;5032103;28;19913;-82
2021/01/08 13:16:21;;;;;;;;;;;19.10;92.80;;;;;;5032713;28;20414;-82
2021/01/08 13:18:48;;;;;;;;;;;19.10;92.70;;;;;;5032097;28;20030;-82
2021/01/08 13:21:15;;;;;;;;;;;19.10;92.80;;;;;;5032737;28;19957;-83
2021/01/08 13:23:45;;;;;;;;;;;19.20;93.00;;;;;;5031700;28;19914;-83
2021/01/08 13:26:21;;;;;;;;;;;19.20;93.10;;;;;;5032610;28;20315;-83
2021/01/08 13:28:48;;;;;;;;;;;19.20;93.20;;;;;;5032934;28;19996;-82
2021/01/08 13:31:20;;;;;;;;;;;19.20;93.20;;;;;;5032625;28;19917;-83
2021/01/08 13:33:46;;;;;;;;;;;19.20;93.50;;;;;;5036322;28;19913;-82
2021/01/08 13:36:13;;;;;;;;;;;19.20;93.60;;;;;;5036511;28;20012;-82
2021/01/08 13:38:39;;;;;;;;;;;19.20;93.60;;;;;;5036391;28;19913;-82
2021/01/08 13:41:06;;;;;;;;;;;19.30;93.70;;;;;;5036119;28;20027;-83
2021/01/08 13:43:33;;;;;;;;;;;19.30;94.00;;;;;;5036059;28;19915;-83
2021/01/08 13:46:02;;;;;;;;;;;19.40;93.80;;;;;;5036058;28;19996;-82
2021/01/08 13:48:31;;;;;;;;;;;19.40;93.80;;;;;;5036341;28;19910;-83
2021/01/08 13:50:58;;;;;;;;;;;19.40;94.00;;;;;;5036103;28;19917;-83
2021/01/08 13:53:24;;;;;;;;;;;19.40;94.00;;;;;;5035943;28;20004;-82
2021/01/08 13:55:51;;;;;;;;;;;19.40;94.00;;;;;;5036089;28;19971;-81
2021/01/08 13:58:18;;;;;;;;;;;19.40;93.90;;;;;;5036048;28;19909;-82
2021/01/08 14:00:45;;;;;;;;;;;19.40;93.90;;;;;;5035953;28;20421;-83
2021/01/08 14:03:13;;;;;;;;;;;19.40;93.90;;;;;;5036033;28;19909;-82
2021/01/08 14:05:40;;;;;;;;;;;19.30;94.30;;;;;;5034182;28;20410;-82
2021/01/08 14:08:07;;;;;;;;;;;19.30;94.20;;;;;;5034544;28;19982;-82
2021/01/08 14:10:34;;;;;;;;;;;19.40;94.40;;;;;;5035240;28;19909;-82
2021/01/08 14:13:01;;;;;;;;;;;19.30;94.70;;;;;;5035703;28;19943;-83
2021/01/08 14:15:28;;;;;;;;;;;19.30;94.60;;;;;;5035430;28;19993;-83
2021/01/08 14:17:55;;;;;;;;;;;19.30;94.90;;;;;;5035764;28;19909;-83
2021/01/08 14:20:22;;;;;;;;;;;19.20;94.70;;;;;;5035602;28;19996;-83
2021/01/08 14:22:48;;;;;;;;;;;19.20;94.70;;;;;;5017866;28;19909;-83
2021/01/08 14:25:15;;;;;;;;;;;19.20;94.70;;;;;;5035758;28;20347;-83
2021/01/08 14:27:42;;;;;;;;;;;19.30;94.80;;;;;;5035583;28;19954;-83